Time;durP1;ratioP1;P1;durP2;ratioP2;P2;SDS_P1;SDS_P2;PMS_P1;PMS_P2;Temp;Humidity;BMP_temperature;BMP_pressure;BME280_temperature;BME280_humidity;BME280_pressure;Samples;Min_cycle;Max_cycle;Signal;HPM_P1;HPM_P2
2021/11/13 00:02:13;;;;;;;19.45;11.88;;;10.50;99.90;;;;;;5102385;28;20123;-73
2021/11/13 00:04:38;;;;;;;18.95;12.30;;;10.50;99.90;;;;;;5082264;28;20020;-74
2021/11/13 00:07:04;;;;;;;23.02;14.70;;;10.50;99.90;;;;;;5075554;28;20040;-68
2021/11/13 00:09:29;;;;;;;21.40;14.15;;;10.60;99.90;;;;;;5092111;28;20081;-66
2021/11/13 00:11:57;;;;;;;22.13;13.02;;;10.60;99.90;;;;;;5075570;28;20024;-69
2021/11/13 00:14:22;;;;;;;22.30;13.27;;;10.60;99.90;;;;;;5092498;28;20020;-68
2021/11/13 00:16:48;;;;;;;20.85;14.38;;;10.60;99.90;;;;;;5075466;28;20081;-68
2021/11/13 00:19:14;;;;;;;24.05;14.68;;;10.70;99.90;;;;;;5092293;28;20032;-67
2021/11/13 00:21:40;;;;;;;18.63;12.75;;;10.70;99.90;;;;;;5075446;28;20021;-65
2021/11/13 00:24:05;;;;;;;21.35;12.75;;;10.70;99.90;;;;;;5092336;28;20396;-70
2021/11/13 00:26:31;;;;;;;25.95;14.27;;;10.70;99.90;;;;;;5077209;28;20024;-64
2021/11/13 00:28:57;;;;;;;23.60;14.88;;;10.70;99.90;;;;;;5095330;28;20044;-65
2021/11/13 00:31:22;;;;;;;21.30;13.93;;;10.70;99.90;;;;;;5078310;28;20028;-69
2021/11/13 00:33:48;;;;;;;17.25;12.10;;;10.70;99.90;;;;;;5077275;28;20486;-69
2021/11/13 00:36:14;;;;;;;20.05;13.75;;;10.70;99.90;;;;;;5092931;28;20027;-73
2021/11/13 00:38:40;;;;;;;19.58;13.02;;;10.70;99.90;;;;;;5092867;28;20098;-71
2021/11/13 00:41:05;;;;;;;24.58;14.13;;;10.90;99.90;;;;;;5092436;28;20024;-69
2021/11/13 00:43:31;;;;;;;21.80;13.43;;;10.90;99.90;;;;;;5075287;28;20028;-69
2021/11/13 00:45:57;;;;;;;22.48;13.95;;;10.90;99.90;;;;;;5075213;28;20454;-67
2021/11/13 00:48:22;;;;;;;21.88;14.55;;;10.90;99.90;;;;;;5091658;28;20036;-69
2021/11/13 00:50:48;;;;;;;18.25;13.40;;;11.00;99.90;;;;;;5110397;28;20028;-79
2021/11/13 00:53:16;;;;;;;17.60;12.38;;;11.00;99.90;;;;;;5096231;28;20024;-77
2021/11/13 00:55:41;;;;;;;20.50;12.38;;;11.00;99.90;;;;;;5080234;28;20108;-76
2021/11/13 00:58:07;;;;;;;13.90;11.07;;;11.00;99.90;;;;;;5098913;28;20028;-74
2021/11/13 01:00:33;;;;;;;15.00;10.68;;;11.10;99.90;;;;;;5097907;28;20024;-69
2021/11/13 01:02:59;;;;;;;17.80;12.48;;;11.00;99.90;;;;;;5094572;28;20068;-75
2021/11/13 01:05:24;;;;;;;19.02;12.40;;;11.10;99.90;;;;;;5079924;28;20052;-82
2021/11/13 01:07:50;;;;;;;15.70;11.55;;;11.10;99.90;;;;;;5107122;28;20100;-66
2021/11/13 01:10:18;;;;;;;16.55;11.43;;;11.20;99.90;;;;;;5111923;28;20020;-67
2021/11/13 01:12:45;;;;;;;17.40;10.98;;;11.20;99.90;;;;;;5086050;28;20080;-66
2021/11/13 01:15:12;;;;;;;16.33;10.50;;;11.30;99.90;;;;;;5085721;28;20020;-67
2021/11/13 01:17:38;;;;;;;16.70;10.45;;;11.30;99.90;;;;;;5103878;28;20028;-66
2021/11/13 01:20:06;;;;;;;16.15;10.20;;;11.30;99.90;;;;;;5111643;28;20008;-70
2021/11/13 01:22:32;;;;;;;15.95;9.93;;;11.40;99.90;;;;;;5120560;28;20020;-67
2021/11/13 01:24:58;;;;;;;11.60;8.77;;;11.40;99.90;;;;;;5119389;28;20004;-70
2021/11/13 01:27:23;;;;;;;10.90;8.82;;;11.40;99.90;;;;;;5119580;28;20052;-74
2021/11/13 01:29:49;;;;;;;13.60;9.20;;;11.40;99.90;;;;;;5099462;28;20024;-80
2021/11/13 01:32:16;;;;;;;12.35;8.95;;;11.40;99.90;;;;;;5096838;28;20475;-81
2021/11/13 01:34:42;;;;;;;16.25;9.23;;;11.50;99.90;;;;;;5098647;28;20028;-75
2021/11/13 01:37:08;;;;;;;14.75;8.70;;;11.40;99.90;;;;;;5118379;28;20035;-71
2021/11/13 01:39:36;;;;;;;18.20;8.68;;;11.50;99.90;;;;;;5117723;28;20073;-66
2021/11/13 01:42:02;;;;;;;13.13;7.78;;;11.60;99.90;;;;;;5116650;28;20028;-66
2021/11/13 01:44:28;;;;;;;12.02;6.82;;;11.60;99.90;;;;;;5109389;28;20083;-68
2021/11/13 01:46:53;;;;;;;11.20;6.53;;;11.70;99.90;;;;;;5091323;28;20039;-65
2021/11/13 01:49:19;;;;;;;14.27;5.82;;;11.80;99.90;;;;;;5086855;28;20024;-81
2021/11/13 01:51:47;;;;;;;14.15;4.72;;;11.80;99.90;;;;;;5082087;28;20047;-69
2021/11/13 01:54:12;;;;;;;15.82;3.78;;;11.80;99.90;;;;;;5098806;28;20098;-74
2021/11/13 01:56:40;;;;;;;15.75;2.55;;;11.90;99.90;;;;;;5099638;28;20020;-78
2021/11/13 01:59:07;;;;;;;12.93;4.05;;;11.90;99.90;;;;;;5105361;28;20413;-67
2021/11/13 02:01:33;;;;;;;18.38;3.38;;;11.90;99.90;;;;;;5095733;28;20032;-69
2021/11/13 02:03:59;;;;;;;15.88;2.67;;;12.00;99.90;;;;;;5107992;28;20036;-79
2021/11/13 02:06:25;;;;;;;14.63;2.65;;;11.90;99.90;;;;;;5111007;28;20125;-66
2021/11/13 02:08:51;;;;;;;12.20;2.08;;;12.10;99.90;;;;;;5099474;28;20016;-71
2021/11/13 02:11:20;;;;;;;10.35;2.45;;;12.10;99.90;;;;;;5116205;28;20020;-71
2021/11/13 02:13:46;;;;;;;13.48;2.60;;;12.10;99.90;;;;;;5081681;28;20024;-68
2021/11/13 02:16:12;;;;;;;8.32;2.80;;;12.10;99.90;;;;;;5094653;28;20058;-73
2021/11/13 02:18:39;;;;;;;11.02;1.95;;;12.10;99.90;;;;;;5094602;28;20024;-74
2021/11/13 02:21:05;;;;;;;12.55;3.28;;;12.20;99.90;;;;;;5095896;28;20028;-72
2021/11/13 02:23:31;;;;;;;10.32;2.25;;;12.10;99.90;;;;;;5095643;28;20024;-69
2021/11/13 02:25:57;;;;;;;14.13;3.28;;;12.10;99.90;;;;;;5095341;28;20039;-72
2021/11/13 02:28:25;;;;;;;10.45;2.55;;;12.10;99.90;;;;;;5076766;28;20047;-70
2021/11/13 02:30:53;;;;;;;9.60;1.75;;;12.10;99.90;;;;;;5076193;28;20099;-72
2021/11/13 02:33:19;;;;;;;10.80;3.05;;;12.10;99.90;;;;;;5093980;28;20028;-69
2021/11/13 02:35:46;;;;;;;16.60;3.78;;;12.10;99.90;;;;;;5093870;28;20484;-72
2021/11/13 02:38:20;;;;;;;14.43;2.60;;;12.00;99.90;;;;;;5093854;28;20031;-72
2021/11/13 02:40:51;;;;;;;20.15;3.70;;;12.00;99.90;;;;;;5094948;28;20032;-70
2021/11/13 02:43:18;;;;;;;7.18;2.00;;;12.00;99.90;;;;;;5076691;28;20035;-70
2021/11/13 02:45:44;;;;;;;15.38;3.03;;;12.00;99.90;;;;;;5093604;28;20120;-72
2021/11/13 02:48:11;;;;;;;16.15;3.00;;;12.00;99.90;;;;;;5093496;28;20042;-70
2021/11/13 02:50:38;;;;;;;14.57;3.70;;;12.00;99.90;;;;;;5093372;28;20051;-69
2021/11/13 02:53:11;;;;;;;9.10;2.53;;;12.10;99.90;;;;;;5093541;28;20026;-75
2021/11/13 02:55:36;;;;;;;18.95;3.70;;;12.20;99.90;;;;;;5076828;28;20024;-73
2021/11/13 02:58:02;;;;;;;12.52;2.95;;;12.20;99.90;;;;;;5093601;28;20073;-73
2021/11/13 03:00:29;;;;;;;18.42;4.72;;;12.30;99.90;;;;;;5093806;28;20505;-72
2021/11/13 03:02:55;;;;;;;12.27;2.33;;;12.30;99.90;;;;;;5093825;28;20470;-73
2021/11/13 03:05:31;;;;;;;17.27;3.28;;;12.30;99.90;;;;;;5093622;28;20024;-74
2021/11/13 03:07:59;;;;;;;7.82;2.30;;;12.30;99.90;;;;;;5093257;28;20039;-71
2021/11/13 03:10:28;;;;;;;11.30;2.97;;;12.30;99.90;;;;;;5093309;28;20095;-73
2021/11/13 03:12:54;;;;;;;18.38;2.83;;;12.30;99.90;;;;;;5076163;28;20022;-74
2021/11/13 03:15:22;;;;;;;12.60;2.58;;;12.30;99.90;;;;;;5093141;28;20100;-73
2021/11/13 03:17:48;;;;;;;11.15;2.20;;;12.30;99.90;;;;;;5093188;28;20024;-72
2021/11/13 03:20:18;;;;;;;10.38;2.70;;;12.30;99.90;;;;;;5076205;28;20069;-73
2021/11/13 03:22:44;;;;;;;9.93;1.92;;;12.40;99.90;;;;;;5093434;28;20028;-73
2021/11/13 03:25:13;;;;;;;19.15;3.30;;;12.40;99.90;;;;;;5076105;28;20020;-74
2021/11/13 03:27:41;;;;;;;12.25;3.63;;;12.40;99.90;;;;;;5092894;28;20044;-73
2021/11/13 03:30:07;;;;;;;18.65;3.75;;;12.40;99.90;;;;;;5093074;28;20012;-74
2021/11/13 03:32:34;;;;;;;12.60;2.08;;;12.40;99.90;;;;;;5075889;28;20373;-71
2021/11/13 03:35:02;;;;;;;14.15;2.17;;;12.50;99.90;;;;;;5092972;28;20461;-73
2021/11/13 03:37:28;;;;;;;6.80;1.90;;;12.50;99.90;;;;;;5092895;28;20024;-73
2021/11/13 03:39:54;;;;;;;7.50;1.95;;;12.60;99.90;;;;;;5093023;28;20024;-74
2021/11/13 03:42:19;;;;;;;7.68;2.30;;;12.60;99.90;;;;;;5095613;28;20031;-78
2021/11/13 03:44:45;;;;;;;6.88;2.17;;;12.60;99.90;;;;;;5076336;28;20059;-76
2021/11/13 03:47:11;;;;;;;5.65;1.23;;;12.50;99.90;;;;;;5077316;28;20016;-77
2021/11/13 03:49:36;;;;;;;7.32;1.15;;;12.30;99.90;;;;;;5077118;28;20115;-75
2021/11/13 03:52:03;;;;;;;5.30;1.25;;;12.20;99.90;;;;;;5078306;28;20028;-81
2021/11/13 03:54:31;;;;;;;5.47;1.00;;;12.10;99.90;;;;;;5076959;28;20020;-75
2021/11/13 03:56:56;;;;;;;11.98;2.45;;;12.00;99.90;;;;;;5078387;28;20082;-78
2021/11/13 03:59:23;;;;;;;8.40;1.00;;;12.00;99.90;;;;;;5093109;28;20040;-74
2021/11/13 04:01:49;;;;;;;3.53;0.85;;;11.90;99.90;;;;;;5094132;28;20062;-74
2021/11/13 04:04:14;;;;;;;7.63;0.95;;;11.80;99.90;;;;;;5092526;28;20028;-76
2021/11/13 04:06:40;;;;;;;14.85;2.03;;;11.80;99.90;;;;;;5075675;28;20514;-75
2021/11/13 04:09:05;;;;;;;3.22;0.90;;;11.70;99.90;;;;;;5093772;28;20028;-76
2021/11/13 04:11:31;;;;;;;3.08;0.73;;;11.70;99.90;;;;;;5092640;28;20536;-75
2021/11/13 04:13:57;;;;;;;6.20;0.93;;;11.60;99.90;;;;;;5092670;28;20028;-75
2021/11/13 04:16:22;;;;;;;2.40;0.75;;;11.50;99.90;;;;;;5093466;28;20036;-73
2021/11/13 04:18:48;;;;;;;2.75;1.10;;;11.40;99.90;;;;;;5092234;28;20039;-72
2021/11/13 04:21:13;;;;;;;3.95;0.73;;;11.40;99.90;;;;;;5097780;28;20119;-76
2021/11/13 04:23:40;;;;;;;3.10;0.80;;;11.40;99.90;;;;;;5100970;28;20024;-75
2021/11/13 04:26:06;;;;;;;7.40;1.40;;;11.40;99.90;;;;;;5097621;28;20034;-74
2021/11/13 04:28:31;;;;;;;5.13;1.55;;;11.40;99.90;;;;;;5102995;28;20056;-74
2021/11/13 04:30:57;;;;;;;2.92;0.63;;;11.40;99.90;;;;;;5110960;28;20032;-78
2021/11/13 04:33:23;;;;;;;4.55;1.15;;;11.40;99.90;;;;;;5109674;28;20024;-76
2021/11/13 04:36:01;;;;;;;7.22;0.73;;;11.40;99.90;;;;;;5108226;28;20016;-76
2021/11/13 04:38:32;;;;;;;6.30;1.38;;;11.40;99.90;;;;;;5096302;28;20035;-75
2021/11/13 04:40:59;;;;;;;4.15;1.10;;;11.40;99.90;;;;;;5095443;28;20024;-78
2021/11/13 04:43:25;;;;;;;6.57;1.25;;;11.50;99.90;;;;;;5094672;28;20028;-78
2021/11/13 04:45:50;;;;;;;4.55;1.05;;;11.50;99.90;;;;;;5077010;28;20511;-76
2021/11/13 04:48:16;;;;;;;4.60;1.50;;;11.60;99.90;;;;;;5094531;28;20059;-77
2021/11/13 04:50:41;;;;;;;11.05;1.92;;;11.60;99.90;;;;;;5092955;28;20031;-77
2021/11/13 04:53:07;;;;;;;7.63;1.63;;;11.70;99.90;;;;;;5093615;28;20115;-77
2021/11/13 04:55:33;;;;;;;9.68;1.38;;;11.70;99.90;;;;;;5097083;28;20065;-76
2021/11/13 04:57:58;;;;;;;6.10;1.55;;;11.70;99.90;;;;;;5097467;28;20102;-78
2021/11/13 05:00:27;;;;;;;11.52;2.72;;;11.80;99.90;;;;;;5096951;28;20386;-77
2021/11/13 05:02:54;;;;;;;6.65;1.20;;;11.80;99.90;;;;;;5098493;28;20057;-77
2021/11/13 05:05:20;;;;;;;11.35;1.25;;;11.80;99.90;;;;;;5096396;28;20498;-76
2021/11/13 05:07:46;;;;;;;7.55;1.52;;;11.90;99.90;;;;;;5096432;28;20081;-77
2021/11/13 05:10:12;;;;;;;9.88;1.67;;;11.90;99.90;;;;;;5096369;28;20028;-77
2021/11/13 05:12:39;;;;;;;6.05;1.20;;;11.90;99.90;;;;;;5079058;28;20135;-74
2021/11/13 05:15:05;;;;;;;11.35;1.63;;;12.00;99.90;;;;;;5095807;28;20025;-74
2021/11/13 05:17:31;;;;;;;12.60;2.75;;;12.00;99.90;;;;;;5078747;28;20370;-76
2021/11/13 05:19:57;;;;;;;8.38;2.35;;;12.00;99.90;;;;;;5095736;28;20032;-74
2021/11/13 05:22:23;;;;;;;8.45;1.85;;;12.00;99.90;;;;;;5095635;28;20036;-75
2021/11/13 05:24:49;;;;;;;4.82;2.00;;;12.00;99.90;;;;;;5095563;28;20017;-71
2021/11/13 05:27:14;;;;;;;8.95;1.38;;;12.00;99.90;;;;;;5096424;28;20093;-72
2021/11/13 05:29:40;;;;;;;9.90;1.40;;;12.10;99.90;;;;;;5095563;28;20028;-70
2021/11/13 05:32:06;;;;;;;7.05;1.45;;;12.10;99.90;;;;;;5095231;28;20359;-72
2021/11/13 05:34:32;;;;;;;7.88;1.17;;;12.10;99.90;;;;;;5095364;28;20065;-72
2021/11/13 05:36:58;;;;;;;9.57;1.30;;;12.20;99.90;;;;;;5095102;28;20024;-72
2021/11/13 05:39:23;;;;;;;8.88;2.13;;;12.30;99.90;;;;;;5095219;28;20032;-67
2021/11/13 05:41:49;;;;;;;9.55;2.65;;;12.20;99.90;;;;;;5096769;28;20067;-67
2021/11/13 05:44:14;;;;;;;4.82;1.02;;;12.30;99.90;;;;;;5094998;28;20084;-71
2021/11/13 05:46:40;;;;;;;13.40;2.08;;;12.30;99.90;;;;;;5096157;28;20055;-71
2021/11/13 05:49:06;;;;;;;5.03;1.48;;;12.30;99.90;;;;;;5095053;28;20028;-72
2021/11/13 05:51:32;;;;;;;3.75;1.80;;;12.30;99.90;;;;;;5096066;28;20029;-70
2021/11/13 05:53:57;;;;;;;8.65;2.58;;;12.40;99.90;;;;;;5094855;28;20024;-71
2021/11/13 05:56:23;;;;;;;6.13;1.63;;;12.40;99.90;;;;;;5094799;28;20035;-70
2021/11/13 05:58:49;;;;;;;5.07;1.88;;;12.40;99.90;;;;;;5077830;28;20024;-72
2021/11/13 06:01:14;;;;;;;9.43;1.50;;;12.40;99.90;;;;;;5077781;28;20115;-71
2021/11/13 06:03:40;;;;;;;8.88;1.90;;;12.40;99.90;;;;;;5094559;28;20486;-70
2021/11/13 06:06:06;;;;;;;8.32;1.67;;;12.30;99.90;;;;;;5076444;28;20089;-72
2021/11/13 06:08:32;;;;;;;11.32;2.42;;;12.30;99.90;;;;;;5097465;28;20494;-76
2021/11/13 06:10:58;;;;;;;9.45;1.70;;;12.30;99.90;;;;;;5096453;28;20024;-76
2021/11/13 06:13:24;;;;;;;7.55;1.67;;;12.30;99.90;;;;;;5095129;28;20458;-76
2021/11/13 06:15:49;;;;;;;6.63;1.58;;;12.30;99.90;;;;;;5095274;28;20049;-77
2021/11/13 06:18:15;;;;;;;2.13;0.98;;;12.40;99.90;;;;;;5080883;28;20020;-76
2021/11/13 06:20:40;;;;;;;6.18;1.42;;;12.40;99.90;;;;;;5078260;28;20382;-75
2021/11/13 06:23:06;;;;;;;6.63;1.63;;;12.40;99.90;;;;;;5077903;28;20024;-75
2021/11/13 06:25:32;;;;;;;4.53;1.17;;;12.40;99.90;;;;;;5094698;28;20028;-74
2021/11/13 06:27:57;;;;;;;6.35;1.10;;;12.40;99.90;;;;;;5095387;28;20056;-77
2021/11/13 06:30:27;;;;;;;8.55;1.70;;;12.40;99.90;;;;;;5104233;28;20043;-77
2021/11/13 06:32:53;;;;;;;6.85;1.60;;;12.40;99.90;;;;;;5104983;28;20402;-79
2021/11/13 06:35:19;;;;;;;5.22;1.60;;;12.40;99.90;;;;;;5110854;28;20088;-78
2021/11/13 06:37:44;;;;;;;3.65;1.05;;;12.40;99.90;;;;;;5119214;28;20016;-72
2021/11/13 06:40:12;;;;;;;4.63;1.55;;;12.40;99.90;;;;;;5119031;28;20016;-75
2021/11/13 06:42:38;;;;;;;5.32;1.27;;;12.40;99.90;;;;;;5119887;28;20020;-72
2021/11/13 06:45:05;;;;;;;3.72;0.90;;;12.40;99.90;;;;;;5119701;28;20032;-71
2021/11/13 06:47:30;;;;;;;2.60;0.85;;;12.40;99.90;;;;;;5115305;28;20032;-76
2021/11/13 06:49:56;;;;;;;4.75;0.63;;;12.30;99.90;;;;;;5099731;28;20119;-78
2021/11/13 06:52:22;;;;;;;5.18;1.30;;;12.30;99.90;;;;;;5098260;28;20051;-79
2021/11/13 06:54:47;;;;;;;3.22;1.10;;;12.30;99.90;;;;;;5099284;28;20425;-82
2021/11/13 06:57:14;;;;;;;4.18;1.40;;;12.30;99.90;;;;;;5098208;28;20081;-77
2021/11/13 06:59:39;;;;;;;2.58;1.00;;;12.30;99.90;;;;;;5079542;28;20031;-79
2021/11/13 07:02:05;;;;;;;1.80;0.45;;;12.30;99.90;;;;;;5096480;28;20032;-81
2021/11/13 07:04:30;;;;;;;1.85;1.10;;;12.30;99.90;;;;;;5095845;28;20024;-80
2021/11/13 07:06:56;;;;;;;2.40;0.50;;;12.40;99.90;;;;;;5101126;28;20050;-81
2021/11/13 07:09:22;;;;;;;5.50;1.05;;;12.40;99.90;;;;;;5099697;28;20012;-75
2021/11/13 07:11:48;;;;;;;2.05;0.60;;;12.40;99.90;;;;;;5094834;28;20368;-75
2021/11/13 07:14:13;;;;;;;2.03;0.82;;;12.30;99.90;;;;;;5093299;28;20043;-76
2021/11/13 07:16:39;;;;;;;4.72;0.70;;;12.40;99.90;;;;;;5092950;28;20059;-74
2021/11/13 07:19:04;;;;;;;3.50;0.70;;;12.40;99.90;;;;;;5093036;28;20016;-75
2021/11/13 07:21:31;;;;;;;3.05;1.17;;;12.40;99.90;;;;;;5093199;28;20077;-73
2021/11/13 07:23:56;;;;;;;1.35;0.90;;;12.40;99.90;;;;;;5076198;28;20028;-73
2021/11/13 07:26:22;;;;;;;2.17;0.90;;;12.40;99.90;;;;;;5094381;28;20057;-73
2021/11/13 07:28:50;;;;;;;1.15;0.80;;;12.40;99.90;;;;;;5093006;28;20052;-73
2021/11/13 07:31:17;;;;;;;3.35;0.88;;;12.50;99.90;;;;;;5093057;28;20020;-73
2021/11/13 07:33:44;;;;;;;2.72;1.10;;;12.40;99.90;;;;;;5076177;28;20081;-72
2021/11/13 07:36:10;;;;;;;3.15;1.35;;;12.40;99.90;;;;;;5092937;28;20027;-73
2021/11/13 07:38:39;;;;;;;3.22;1.83;;;12.40;99.90;;;;;;5075683;28;20157;-72
2021/11/13 07:41:05;;;;;;;5.47;1.83;;;12.30;99.90;;;;;;5093036;28;20039;-72
2021/11/13 07:43:31;;;;;;;4.97;1.35;;;12.30;99.90;;;;;;5075522;28;20475;-70
2021/11/13 07:45:56;;;;;;;2.53;1.60;;;12.30;99.90;;;;;;5093041;28;20143;-71
2021/11/13 07:48:22;;;;;;;4.07;1.40;;;12.30;99.90;;;;;;5092244;28;20236;-72
2021/11/13 07:50:48;;;;;;;3.40;1.55;;;12.30;99.90;;;;;;5075700;28;20161;-72
2021/11/13 07:53:14;;;;;;;4.03;1.30;;;12.30;99.90;;;;;;5075562;28;20110;-72
2021/11/13 07:55:40;;;;;;;2.47;1.02;;;12.30;99.90;;;;;;5092443;28;20107;-72
2021/11/13 07:58:06;;;;;;;5.47;1.48;;;12.40;99.90;;;;;;5092254;28;20496;-72
2021/11/13 08:00:32;;;;;;;3.70;1.30;;;12.40;99.90;;;;;;5092599;28;20040;-73
2021/11/13 08:02:58;;;;;;;2.22;1.10;;;12.40;99.90;;;;;;5092235;28;20064;-70
2021/11/13 08:05:23;;;;;;;4.00;1.40;;;12.50;99.90;;;;;;5092386;28;20085;-69
2021/11/13 08:07:50;;;;;;;4.30;1.40;;;12.60;99.90;;;;;;5092165;28;20032;-69
2021/11/13 08:10:17;;;;;;;5.55;1.70;;;12.80;99.90;;;;;;5092371;28;20412;-71
2021/11/13 08:12:43;;;;;;;5.22;1.60;;;12.90;99.90;;;;;;5092428;28;20102;-69
2021/11/13 08:15:10;;;;;;;5.47;1.98;;;13.30;99.90;;;;;;5075509;28;20461;-72
2021/11/13 08:17:35;;;;;;;6.13;1.67;;;13.70;99.90;;;;;;5092209;28;20036;-71
2021/11/13 08:20:03;;;;;;;3.03;1.60;;;13.90;99.90;;;;;;5092152;28;20097;-70
2021/11/13 08:22:28;;;;;;;2.33;1.52;;;14.10;99.90;;;;;;5092719;28;20016;-77
2021/11/13 08:24:54;;;;;;;7.85;2.58;;;14.20;99.90;;;;;;5093053;28;20081;-75
2021/11/13 08:27:19;;;;;;;3.28;1.40;;;14.30;99.90;;;;;;5095794;28;20513;-73
2021/11/13 08:29:45;;;;;;;6.72;1.40;;;14.30;99.90;;;;;;5093893;28;20028;-69
2021/11/13 08:32:11;;;;;;;4.22;1.35;;;14.30;99.90;;;;;;5079705;28;20069;-75
2021/11/13 08:34:37;;;;;;;3.80;1.58;;;14.30;99.90;;;;;;5108079;28;20027;-74
2021/11/13 08:37:03;;;;;;;11.73;2.20;;;14.30;99.90;;;;;;5109447;28;20036;-72
2021/11/13 08:39:34;;;;;;;7.03;1.75;;;14.30;99.90;;;;;;5104631;28;20055;-75
2021/11/13 08:42:02;;;;;;;4.95;1.73;;;14.30;99.90;;;;;;5096116;28;20110;-75
2021/11/13 08:44:28;;;;;;;5.57;1.70;;;14.30;99.90;;;;;;5093915;28;20019;-73
2021/11/13 08:46:55;;;;;;;5.65;2.50;;;14.30;99.90;;;;;;5092740;28;20032;-77
2021/11/13 08:49:23;;;;;;;6.57;2.05;;;14.30;99.90;;;;;;5075814;28;20471;-75
2021/11/13 08:51:48;;;;;;;8.57;1.90;;;14.30;99.90;;;;;;5092239;28;20032;-71
2021/11/13 08:54:14;;;;;;;4.00;1.50;;;14.30;99.90;;;;;;5092192;28;20083;-72
2021/11/13 08:56:39;;;;;;;5.88;1.48;;;14.30;99.90;;;;;;5075124;28;20073;-74
2021/11/13 08:59:05;;;;;;;8.23;2.00;;;14.30;99.90;;;;;;5092517;28;20032;-71
2021/11/13 09:01:33;;;;;;;9.13;2.35;;;14.30;99.90;;;;;;5092335;28;20485;-76
2021/11/13 09:03:59;;;;;;;6.28;1.77;;;14.40;99.90;;;;;;5075340;28;20024;-72
2021/11/13 09:06:30;;;;;;;7.25;1.88;;;14.50;99.90;;;;;;5092158;28;20052;-71
2021/11/13 09:08:56;;;;;;;6.80;2.53;;;14.70;99.90;;;;;;5092031;28;20040;-72
2021/11/13 09:11:24;;;;;;;10.50;2.85;;;15.00;99.90;;;;;;5094174;28;20021;-76
2021/11/13 09:13:55;;;;;;;9.65;3.60;;;15.20;99.90;;;;;;5092179;28;20368;-74
2021/11/13 09:16:21;;;;;;;7.47;4.18;;;15.60;99.90;;;;;;5092318;28;20024;-71
2021/11/13 09:18:47;;;;;;;8.35;4.70;;;15.70;99.90;;;;;;5093747;28;20028;-72
2021/11/13 09:21:13;;;;;;;13.07;6.13;;;15.80;99.90;;;;;;5092447;28;20490;-71
2021/11/13 09:23:39;;;;;;;14.40;6.50;;;15.70;99.90;;;;;;5092001;28;20016;-71
2021/11/13 09:26:06;;;;;;;13.90;6.18;;;15.60;99.90;;;;;;5091631;28;20379;-70
2021/11/13 09:28:32;;;;;;;11.13;5.90;;;15.50;99.90;;;;;;5092998;28;20045;-73
2021/11/13 09:31:00;;;;;;;12.65;6.50;;;15.60;99.90;;;;;;5092899;28;20031;-68
2021/11/13 09:33:27;;;;;;;11.65;5.63;;;16.10;99.90;;;;;;5092083;28;20044;-69
2021/11/13 09:35:53;;;;;;;13.13;5.78;;;17.00;99.90;;;;;;5091381;28;20017;-66
2021/11/13 09:38:21;;;;;;;11.63;5.10;;;17.90;99.90;;;;;;5074423;28;20047;-66
2021/11/13 09:40:47;;;;;;;7.70;4.63;;;18.70;99.90;;;;;;5093423;28;20016;-67
2021/11/13 09:43:13;;;;;;;10.35;5.05;;;19.40;99.90;;;;;;5094922;28;20555;-66
2021/11/13 09:45:39;;;;;;;10.52;4.88;;;20.00;99.90;;;;;;5077765;28;20554;-67
2021/11/13 09:48:05;;;;;;;7.55;3.75;;;20.40;99.90;;;;;;5095328;28;20118;-67
2021/11/13 09:50:36;;;;;;;9.70;4.30;;;20.80;99.90;;;;;;5094923;28;20076;-68
2021/11/13 09:53:04;;;;;;;9.02;4.75;;;20.90;99.90;;;;;;5094826;28;20023;-70
2021/11/13 09:55:30;;;;;;;13.52;5.45;;;20.70;99.90;;;;;;5077889;28;20051;-68
2021/11/13 09:57:56;;;;;;;5.35;3.42;;;20.00;99.90;;;;;;5095956;28;20048;-66
2021/11/13 10:00:24;;;;;;;15.57;3.95;;;19.20;99.90;;;;;;5094824;28;20032;-67
2021/11/13 10:02:50;;;;;;;9.85;3.85;;;18.60;99.90;;;;;;5094864;28;20073;-68
2021/11/13 10:05:16;;;;;;;6.88;2.60;;;18.20;99.90;;;;;;5078659;28;20081;-73
2021/11/13 10:07:43;;;;;;;4.82;2.80;;;17.70;99.90;;;;;;5096276;28;20115;-78
2021/11/13 10:10:10;;;;;;;3.38;2.03;;;17.30;99.90;;;;;;5096370;28;20043;-72
2021/11/13 10:12:38;;;;;;;5.15;2.42;;;16.70;99.90;;;;;;5078609;28;20031;-77
2021/11/13 10:15:34;;;;;;;4.68;2.20;;;16.30;99.90;;;;;;5095359;28;20020;-71
2021/11/13 10:18:19;;;;;;;5.20;2.08;;;15.90;99.90;;;;;;5094696;28;20032;-74
2021/11/13 10:20:57;;;;;;;4.95;2.00;;;15.50;99.90;;;;;;5095065;28;20107;-74
2021/11/13 10:23:26;;;;;;;3.08;1.98;;;15.30;99.90;;;;;;5094725;28;20142;-74
2021/11/13 10:26:14;;;;;;;3.83;2.25;;;15.00;99.90;;;;;;5094635;28;20544;-70
2021/11/13 10:29:17;;;;;;;1.95;1.77;;;14.80;99.90;;;;;;5094475;28;20044;-75
2021/11/13 10:31:51;;;;;;;3.85;2.03;;;14.70;99.90;;;;;;5091427;28;20037;-75
2021/11/13 10:34:19;;;;;;;8.18;1.60;;;14.60;99.90;;;;;;5077615;28;20024;-75
2021/11/13 10:36:57;;;;;;;4.18;1.38;;;14.60;99.90;;;;;;5077529;28;20035;-74
2021/11/13 10:39:26;;;;;;;3.00;1.58;;;14.60;99.90;;;;;;5095682;28;20472;-73
2021/11/13 10:41:54;;;;;;;4.07;1.52;;;14.80;99.90;;;;;;5095521;28;20020;-71
2021/11/13 10:44:34;;;;;;;2.90;1.33;;;15.00;99.90;;;;;;5095838;28;20024;-76
2021/11/13 10:47:21;;;;;;;5.50;2.60;;;15.20;99.90;;;;;;5095632;28;20051;-77
2021/11/13 10:49:50;;;;;;;3.72;1.00;;;15.10;99.90;;;;;;5077220;28;20024;-75
2021/11/13 10:52:17;;;;;;;4.95;1.20;;;15.00;99.90;;;;;;5076365;28;20513;-71
2021/11/13 10:54:48;;;;;;;5.20;2.25;;;15.00;99.90;;;;;;5093876;28;20099;-72
2021/11/13 10:57:22;;;;;;;4.95;1.60;;;15.00;99.90;;;;;;5093771;28;20024;-74
2021/11/13 10:59:48;;;;;;;10.52;2.17;;;15.20;99.90;;;;;;5076821;28;20475;-75
2021/11/13 11:02:16;;;;;;;8.05;2.28;;;15.30;99.90;;;;;;5094968;28;20031;-71
2021/11/13 11:04:44;;;;;;;3.63;1.55;;;15.50;99.90;;;;;;5076628;28;20032;-73
2021/11/13 11:07:20;;;;;;;9.68;2.05;;;15.60;99.90;;;;;;5093592;28;20054;-73
2021/11/13 11:09:56;;;;;;;4.72;2.00;;;15.70;99.90;;;;;;5093729;28;20474;-66
2021/11/13 11:12:28;;;;;;;5.53;2.45;;;15.60;99.90;;;;;;5076677;28;20030;-74
2021/11/13 11:14:54;;;;;;;10.88;4.72;;;15.60;99.90;;;;;;5093877;28;20028;-69
2021/11/13 11:17:28;;;;;;;5.07;2.80;;;15.60;99.90;;;;;;5094657;28;20470;-75
2021/11/13 11:20:02;;;;;;;4.32;2.20;;;15.60;99.90;;;;;;5093390;28;20552;-71
2021/11/13 11:22:28;;;;;;;5.03;2.35;;;15.40;99.90;;;;;;5094958;28;20020;-74
2021/11/13 11:25:02;;;;;;;5.75;1.95;;;15.20;99.90;;;;;;5095070;28;20024;-67
2021/11/13 11:27:41;;;;;;;4.45;1.45;;;15.10;99.90;;;;;;5093245;28;20490;-74
2021/11/13 11:30:18;;;;;;;4.97;1.83;;;15.10;99.90;;;;;;5093517;28;20027;-69
2021/11/13 11:32:51;;;;;;;3.70;1.25;;;15.10;99.90;;;;;;5076204;28;20367;-70
2021/11/13 11:35:29;;;;;;;4.78;1.40;;;15.30;99.90;;;;;;5094124;28;20410;-70
2021/11/13 11:37:58;;;;;;;4.50;0.90;;;15.20;99.90;;;;;;5092866;28;20024;-66
2021/11/13 11:40:25;;;;;;;5.15;1.52;;;15.20;99.90;;;;;;5093034;28;20024;-68
2021/11/13 11:42:51;;;;;;;3.92;1.05;;;15.20;99.90;;;;;;5092813;28;20052;-67
2021/11/13 11:45:22;;;;;;;3.05;0.77;;;15.30;99.90;;;;;;5094130;28;20099;-70
2021/11/13 11:47:49;;;;;;;5.78;1.20;;;15.60;99.90;;;;;;5075704;28;20398;-69
2021/11/13 11:50:17;;;;;;;1.85;0.90;;;16.00;99.90;;;;;;5092599;28;20031;-68
2021/11/13 11:52:44;;;;;;;2.90;1.05;;;16.20;99.90;;;;;;5075747;28;20032;-66
2021/11/13 11:55:13;;;;;;;1.77;1.00;;;16.30;99.90;;;;;;5092540;28;20115;-67
2021/11/13 11:57:43;;;;;;;4.25;0.88;;;16.20;99.90;;;;;;5092614;28;20020;-66
2021/11/13 12:00:18;;;;;;;3.08;1.08;;;16.10;99.90;;;;;;5092502;28;20112;-67
2021/11/13 12:02:50;;;;;;;1.80;1.10;;;15.90;99.90;;;;;;5093807;28;20029;-66
2021/11/13 12:05:19;;;;;;;4.43;1.45;;;15.60;99.90;;;;;;5074663;28;20046;-67
2021/11/13 12:07:46;;;;;;;1.88;1.00;;;15.60;99.90;;;;;;5093366;28;20032;-65
2021/11/13 12:10:15;;;;;;;4.03;1.48;;;15.50;99.90;;;;;;5092352;28;20020;-67
2021/11/13 12:13:03;;;;;;;4.93;1.42;;;15.60;99.90;;;;;;5092429;28;20023;-67
2021/11/13 12:15:29;;;;;;;4.13;1.15;;;15.60;99.90;;;;;;5093475;28;20500;-68
2021/11/13 12:17:57;;;;;;;7.82;1.80;;;15.60;99.90;;;;;;5075273;28;20035;-67
2021/11/13 12:20:31;;;;;;;2.72;1.00;;;15.70;99.90;;;;;;5092506;28;20421;-67
2021/11/13 12:23:14;;;;;;;4.40;1.58;;;15.60;99.90;;;;;;5092604;28;20037;-71
2021/11/13 12:26:02;;;;;;;5.82;1.38;;;15.60;99.90;;;;;;5092743;28;20043;-72
2021/11/13 12:28:29;;;;;;;6.18;1.88;;;15.50;99.90;;;;;;5074699;28;20538;-72
2021/11/13 12:31:01;;;;;;;1.88;0.98;;;15.60;99.90;;;;;;5075681;28;20020;-73
2021/11/13 12:33:26;;;;;;;3.15;1.23;;;15.60;99.90;;;;;;5092822;28;20024;-72
2021/11/13 12:35:58;;;;;;;3.40;1.63;;;15.50;99.90;;;;;;5095035;28;20113;-70
2021/11/13 12:38:30;;;;;;;0.90;0.88;;;15.40;99.90;;;;;;5078029;28;20016;-74
2021/11/13 12:41:34;;;;;;;1.20;0.70;;;15.40;99.90;;;;;;5093745;28;20099;-70
2021/11/13 12:44:08;;;;;;;2.15;0.70;;;15.30;99.90;;;;;;5092716;28;20111;-79
2021/11/13 12:46:40;;;;;;;3.63;0.82;;;15.20;99.90;;;;;;5075748;28;20035;-71